sensor_id;sensor_type;location;lat;lon;timestamp;temperature;humidity
15286;DHT22;7744;52.172;10.668;2023-06-10T00:00:13;16.60;1.00
15286;DHT22;7744;52.172;10.668;2023-06-10T00:02:41;16.60;1.00
15286;DHT22;7744;52.172;10.668;2023-06-10T00:05:06;16.50;1.00
15286;DHT22;7744;52.172;10.668;2023-06-10T00:07:33;16.50;1.00
15286;DHT22;7744;52.172;10.668;2023-06-10T00:10:04;17.00;1.00
15286;DHT22;7744;52.172;10.668;2023-06-10T00:12:31;16.40;1.00
15286;DHT22;7744;52.172;10.668;2023-06-10T00:15:00;16.40;1.00
15286;DHT22;7744;52.172;10.668;2023-06-10T00:17:25;16.30;1.00
15286;DHT22;7744;52.172;10.668;2023-06-10T00:19:54;16.20;1.00
15286;DHT22;7744;52.172;10.668;2023-06-10T00:22:20;16.60;1.00
15286;DHT22;7744;52.172;10.668;2023-06-10T00:24:47;16.10;1.00
15286;DHT22;7744;52.172;10.668;2023-06-10T00:27:13;16.10;1.00
15286;DHT22;7744;52.172;10.668;2023-06-10T00:29:39;16.00;1.00
15286;DHT22;7744;52.172;10.668;2023-06-10T00:32:05;16.80;1.00
15286;DHT22;7744;52.172;10.668;2023-06-10T00:34:30;16.00;1.00
15286;DHT22;7744;52.172;10.668;2023-06-10T00:36:57;15.90;1.00
15286;DHT22;7744;52.172;10.668;2023-06-10T00:39:23;16.00;1.00
15286;DHT22;7744;52.172;10.668;2023-06-10T00:41:49;16.10;1.00
15286;DHT22;7744;52.172;10.668;2023-06-10T00:44:15;15.90;1.00
15286;DHT22;7744;52.172;10.668;2023-06-10T00:46:42;15.80;1.00
15286;DHT22;7744;52.172;10.668;2023-06-10T00:49:08;15.80;1.00
15286;DHT22;7744;52.172;10.668;2023-06-10T00:51:34;15.60;1.00
15286;DHT22;7744;52.172;10.668;2023-06-10T00:54:00;16.00;1.00
15286;DHT22;7744;52.172;10.668;2023-06-10T00:56:26;16.10;1.00
15286;DHT22;7744;52.172;10.668;2023-06-10T00:58:53;15.50;1.00
15286;DHT22;7744;52.172;10.668;2023-06-10T01:01:19;15.40;1.00
15286;DHT22;7744;52.172;10.668;2023-06-10T01:03:45;15.50;1.00
15286;DHT22;7744;52.172;10.668;2023-06-10T01:06:40;15.40;1.00
15286;DHT22;7744;52.172;10.668;2023-06-10T01:09:25;15.60;1.00
15286;DHT22;7744;52.172;10.668;2023-06-10T01:12:03;15.50;1.00
15286;DHT22;7744;52.172;10.668;2023-06-10T01:14:36;15.30;1.00
15286;DHT22;7744;52.172;10.668;2023-06-10T01:17:01;15.10;1.00
15286;DHT22;7744;52.172;10.668;2023-06-10T01:19:28;15.00;1.00
15286;DHT22;7744;52.172;10.668;2023-06-10T01:21:56;15.20;1.00
15286;DHT22;7744;52.172;10.668;2023-06-10T01:24:26;15.00;1.00
15286;DHT22;7744;52.172;10.668;2023-06-10T01:26:54;15.00;1.00
15286;DHT22;7744;52.172;10.668;2023-06-10T01:29:31;14.70;1.00
15286;DHT22;7744;52.172;10.668;2023-06-10T01:32:06;14.90;1.00
15286;DHT22;7744;52.172;10.668;2023-06-10T01:34:33;14.80;1.00
15286;DHT22;7744;52.172;10.668;2023-06-10T01:37:00;15.30;1.00
15286;DHT22;7744;52.172;10.668;2023-06-10T01:39:26;14.90;1.00
15286;DHT22;7744;52.172;10.668;2023-06-10T01:41:53;14.80;1.00
15286;DHT22;7744;52.172;10.668;2023-06-10T01:44:20;14.90;1.00
15286;DHT22;7744;52.172;10.668;2023-06-10T01:46:46;16.30;1.00
15286;DHT22;7744;52.172;10.668;2023-06-10T01:49:12;14.80;1.00
15286;DHT22;7744;52.172;10.668;2023-06-10T01:51:38;14.80;1.00
15286;DHT22;7744;52.172;10.668;2023-06-10T01:54:04;14.70;1.00
15286;DHT22;7744;52.172;10.668;2023-06-10T01:56:29;14.80;1.00
15286;DHT22;7744;52.172;10.668;2023-06-10T01:58:55;14.80;1.00
15286;DHT22;7744;52.172;10.668;2023-06-10T02:01:25;15.30;1.00
15286;DHT22;7744;52.172;10.668;2023-06-10T02:03:50;14.70;1.00
15286;DHT22;7744;52.172;10.668;2023-06-10T02:06:16;15.40;1.00
15286;DHT22;7744;52.172;10.668;2023-06-10T02:08:43;14.60;1.00
15286;DHT22;7744;52.172;10.668;2023-06-10T02:11:08;14.70;1.00
15286;DHT22;7744;52.172;10.668;2023-06-10T02:13:34;14.70;1.00
15286;DHT22;7744;52.172;10.668;2023-06-10T02:16:00;14.90;1.00
15286;DHT22;7744;52.172;10.668;2023-06-10T02:18:26;14.70;1.00
15286;DHT22;7744;52.172;10.668;2023-06-10T02:20:53;14.70;1.00
15286;DHT22;7744;52.172;10.668;2023-06-10T02:23:19;14.60;1.00
15286;DHT22;7744;52.172;10.668;2023-06-10T02:25:45;14.60;1.00
15286;DHT22;7744;52.172;10.668;2023-06-10T02:28:12;14.40;1.00
15286;DHT22;7744;52.172;10.668;2023-06-10T02:30:41;14.30;7.00
15286;DHT22;7744;52.172;10.668;2023-06-10T02:33:07;14.30;58.60
15286;DHT22;7744;52.172;10.668;2023-06-10T02:35:38;14.30;25.90
15286;DHT22;7744;52.172;10.668;2023-06-10T02:38:03;14.30;11.40
15286;DHT22;7744;52.172;10.668;2023-06-10T02:40:29;14.20;21.90
15286;DHT22;7744;52.172;10.668;2023-06-10T02:42:55;14.70;18.70
15286;DHT22;7744;52.172;10.668;2023-06-10T02:45:20;14.10;27.80
15286;DHT22;7744;52.172;10.668;2023-06-10T02:47:46;14.10;21.40
15286;DHT22;7744;52.172;10.668;2023-06-10T02:50:12;14.00;1.00
15286;DHT22;7744;52.172;10.668;2023-06-10T02:52:37;14.30;1.00
15286;DHT22;7744;52.172;10.668;2023-06-10T02:55:03;14.20;1.00
15286;DHT22;7744;52.172;10.668;2023-06-10T02:57:29;13.80;1.00
15286;DHT22;7744;52.172;10.668;2023-06-10T02:59:54;15.00;1.00
15286;DHT22;7744;52.172;10.668;2023-06-10T03:02:20;13.90;1.00
15286;DHT22;7744;52.172;10.668;2023-06-10T03:04:46;14.10;1.00
15286;DHT22;7744;52.172;10.668;2023-06-10T03:07:11;14.40;1.00
15286;DHT22;7744;52.172;10.668;2023-06-10T03:09:38;14.30;1.00
15286;DHT22;7744;52.172;10.668;2023-06-10T03:12:04;14.00;4.20
15286;DHT22;7744;52.172;10.668;2023-06-10T03:14:30;14.20;1.00
15286;DHT22;7744;52.172;10.668;2023-06-10T03:16:55;14.60;6.20
15286;DHT22;7744;52.172;10.668;2023-06-10T03:19:21;14.20;1.00
15286;DHT22;7744;52.172;10.668;2023-06-10T03:21:57;14.30;61.80
15286;DHT22;7744;52.172;10.668;2023-06-10T03:24:23;13.80;94.10
15286;DHT22;7744;52.172;10.668;2023-06-10T03:26:49;14.00;97.30
15286;DHT22;7744;52.172;10.668;2023-06-10T03:29:14;13.90;78.60
15286;DHT22;7744;52.172;10.668;2023-06-10T03:31:40;13.90;85.80
15286;DHT22;7744;52.172;10.668;2023-06-10T03:34:06;14.10;58.30
15286;DHT22;7744;52.172;10.668;2023-06-10T03:36:31;14.00;38.60
15286;DHT22;7744;52.172;10.668;2023-06-10T03:38:57;14.00;54.40
15286;DHT22;7744;52.172;10.668;2023-06-10T03:41:22;14.00;19.50
15286;DHT22;7744;52.172;10.668;2023-06-10T03:43:48;14.20;22.10
15286;DHT22;7744;52.172;10.668;2023-06-10T03:46:14;14.20;23.50
15286;DHT22;7744;52.172;10.668;2023-06-10T03:48:42;14.30;16.80
15286;DHT22;7744;52.172;10.668;2023-06-10T03:51:08;14.30;12.80
15286;DHT22;7744;52.172;10.668;2023-06-10T03:53:33;14.40;19.60
15286;DHT22;7744;52.172;10.668;2023-06-10T03:55:59;14.50;25.80
15286;DHT22;7744;52.172;10.668;2023-06-10T03:58:25;14.40;59.70
15286;DHT22;7744;52.172;10.668;2023-06-10T04:00:51;14.30;89.20
15286;DHT22;7744;52.172;10.668;2023-06-10T04:03:16;14.30;99.90
15286;DHT22;7744;52.172;10.668;2023-06-10T04:05:42;14.20;99.90
15286;DHT22;7744;52.172;10.668;2023-06-10T04:08:08;14.60;99.90
15286;DHT22;7744;52.172;10.668;2023-06-10T04:10:34;14.30;39.20
15286;DHT22;7744;52.172;10.668;2023-06-10T04:12:59;14.40;26.10
15286;DHT22;7744;52.172;10.668;2023-06-10T04:15:25;14.50;12.00
15286;DHT22;7744;52.172;10.668;2023-06-10T04:17:51;14.60;1.00
15286;DHT22;7744;52.172;10.668;2023-06-10T04:20:16;14.60;1.00
15286;DHT22;7744;52.172;10.668;2023-06-10T04:22:42;15.00;1.00
15286;DHT22;7744;52.172;10.668;2023-06-10T04:25:09;14.70;1.00
15286;DHT22;7744;52.172;10.668;2023-06-10T04:27:35;14.80;13.10
15286;DHT22;7744;52.172;10.668;2023-06-10T04:30:01;14.90;1.00
15286;DHT22;7744;52.172;10.668;2023-06-10T04:32:27;14.90;1.00
15286;DHT22;7744;52.172;10.668;2023-06-10T04:34:52;15.10;1.00
15286;DHT22;7744;52.172;10.668;2023-06-10T04:37:18;15.20;1.00
15286;DHT22;7744;52.172;10.668;2023-06-10T04:39:43;15.30;1.00
15286;DHT22;7744;52.172;10.668;2023-06-10T04:42:09;15.30;1.00
15286;DHT22;7744;52.172;10.668;2023-06-10T04:44:34;15.70;1.00
15286;DHT22;7744;52.172;10.668;2023-06-10T04:47:00;15.50;1.00
15286;DHT22;7744;52.172;10.668;2023-06-10T04:49:26;15.60;1.00
15286;DHT22;7744;52.172;10.668;2023-06-10T04:51:51;15.70;1.00
15286;DHT22;7744;52.172;10.668;2023-06-10T04:54:17;15.70;1.00
15286;DHT22;7744;52.172;10.668;2023-06-10T04:56:43;16.00;1.00
15286;DHT22;7744;52.172;10.668;2023-06-10T04:59:08;16.90;1.00
15286;DHT22;7744;52.172;10.668;2023-06-10T05:01:34;18.40;1.00
15286;DHT22;7744;52.172;10.668;2023-06-10T05:03:59;19.70;1.00
15286;DHT22;7744;52.172;10.668;2023-06-10T05:06:25;20.60;1.00
15286;DHT22;7744;52.172;10.668;2023-06-10T05:08:51;21.30;1.00
15286;DHT22;7744;52.172;10.668;2023-06-10T05:11:16;21.50;1.00
15286;DHT22;7744;52.172;10.668;2023-06-10T05:13:42;22.10;1.00
15286;DHT22;7744;52.172;10.668;2023-06-10T05:16:09;22.70;1.00
15286;DHT22;7744;52.172;10.668;2023-06-10T05:18:35;23.10;1.00
15286;DHT22;7744;52.172;10.668;2023-06-10T05:21:01;23.40;1.00
15286;DHT22;7744;52.172;10.668;2023-06-10T05:23:27;24.00;1.00
15286;DHT22;7744;52.172;10.668;2023-06-10T05:25:54;24.50;1.00
15286;DHT22;7744;52.172;10.668;2023-06-10T05:28:20;24.70;1.00
15286;DHT22;7744;52.172;10.668;2023-06-10T05:30:45;25.10;1.00
15286;DHT22;7744;52.172;10.668;2023-06-10T05:33:11;25.10;1.00
15286;DHT22;7744;52.172;10.668;2023-06-10T05:35:37;24.50;1.00
15286;DHT22;7744;52.172;10.668;2023-06-10T05:38:02;25.30;1.00
15286;DHT22;7744;52.172;10.668;2023-06-10T05:40:28;25.80;1.00
15286;DHT22;7744;52.172;10.668;2023-06-10T05:42:53;26.40;1.00
15286;DHT22;7744;52.172;10.668;2023-06-10T05:45:19;26.60;1.00
15286;DHT22;7744;52.172;10.668;2023-06-10T05:47:45;26.60;1.00
15286;DHT22;7744;52.172;10.668;2023-06-10T05:50:10;27.00;1.00
15286;DHT22;7744;52.172;10.668;2023-06-10T05:52:36;27.10;1.00
15286;DHT22;7744;52.172;10.668;2023-06-10T05:55:03;27.40;1.00
15286;DHT22;7744;52.172;10.668;2023-06-10T05:57:29;27.80;1.00
15286;DHT22;7744;52.172;10.668;2023-06-10T05:59:54;27.90;1.00
15286;DHT22;7744;52.172;10.668;2023-06-10T06:02:20;27.70;1.00
15286;DHT22;7744;52.172;10.668;2023-06-10T06:04:45;27.50;1.00
15286;DHT22;7744;52.172;10.668;2023-06-10T06:07:11;27.50;1.00
15286;DHT22;7744;52.172;10.668;2023-06-10T06:09:37;27.70;1.00
15286;DHT22;7744;52.172;10.668;2023-06-10T06:12:03;28.10;1.00
15286;DHT22;7744;52.172;10.668;2023-06-10T06:14:31;28.20;1.00
15286;DHT22;7744;52.172;10.668;2023-06-10T06:16:57;28.90;1.00
15286;DHT22;7744;52.172;10.668;2023-06-10T06:19:23;29.00;1.00
15286;DHT22;7744;52.172;10.668;2023-06-10T06:21:49;29.20;1.00
15286;DHT22;7744;52.172;10.668;2023-06-10T06:24:16;29.00;1.00
15286;DHT22;7744;52.172;10.668;2023-06-10T06:26:41;29.40;1.00
15286;DHT22;7744;52.172;10.668;2023-06-10T06:29:07;29.70;1.00
15286;DHT22;7744;52.172;10.668;2023-06-10T06:31:33;29.90;1.00
15286;DHT22;7744;52.172;10.668;2023-06-10T06:33:58;30.00;1.00
15286;DHT22;7744;52.172;10.668;2023-06-10T06:36:24;30.10;1.00
15286;DHT22;7744;52.172;10.668;2023-06-10T06:38:49;29.60;1.00
15286;DHT22;7744;52.172;10.668;2023-06-10T06:41:15;30.10;1.00
15286;DHT22;7744;52.172;10.668;2023-06-10T06:43:41;29.80;1.00
15286;DHT22;7744;52.172;10.668;2023-06-10T06:46:08;29.70;1.00
15286;DHT22;7744;52.172;10.668;2023-06-10T06:48:34;30.00;1.00
15286;DHT22;7744;52.172;10.668;2023-06-10T06:50:59;30.20;1.00
15286;DHT22;7744;52.172;10.668;2023-06-10T06:53:25;30.60;1.00
15286;DHT22;7744;52.172;10.668;2023-06-10T06:55:51;31.00;1.00
15286;DHT22;7744;52.172;10.668;2023-06-10T06:58:16;30.20;1.00
15286;DHT22;7744;52.172;10.668;2023-06-10T07:00:42;30.00;1.00
15286;DHT22;7744;52.172;10.668;2023-06-10T07:03:08;30.30;1.00
15286;DHT22;7744;52.172;10.668;2023-06-10T07:05:33;30.50;1.00
15286;DHT22;7744;52.172;10.668;2023-06-10T07:07:59;31.00;1.00
15286;DHT22;7744;52.172;10.668;2023-06-10T07:10:25;31.80;1.00
15286;DHT22;7744;52.172;10.668;2023-06-10T07:12:51;31.60;1.00
15286;DHT22;7744;52.172;10.668;2023-06-10T07:15:17;30.60;1.00
15286;DHT22;7744;52.172;10.668;2023-06-10T07:17:43;31.20;1.00
15286;DHT22;7744;52.172;10.668;2023-06-10T07:20:09;31.30;1.00
15286;DHT22;7744;52.172;10.668;2023-06-10T07:22:35;30.50;1.00
15286;DHT22;7744;52.172;10.668;2023-06-10T07:25:00;29.80;1.00
15286;DHT22;7744;52.172;10.668;2023-06-10T07:27:26;30.00;1.00
15286;DHT22;7744;52.172;10.668;2023-06-10T07:29:51;29.10;1.00
15286;DHT22;7744;52.172;10.668;2023-06-10T07:32:18;27.20;1.00
15286;DHT22;7744;52.172;10.668;2023-06-10T07:34:45;25.40;1.00
15286;DHT22;7744;52.172;10.668;2023-06-10T07:37:11;24.30;1.00
15286;DHT22;7744;52.172;10.668;2023-06-10T07:39:36;23.70;1.00
15286;DHT22;7744;52.172;10.668;2023-06-10T07:42:02;23.30;1.00
15286;DHT22;7744;52.172;10.668;2023-06-10T07:44:28;23.00;1.00
15286;DHT22;7744;52.172;10.668;2023-06-10T07:46:53;22.40;1.00
15286;DHT22;7744;52.172;10.668;2023-06-10T07:49:19;22.10;1.00
15286;DHT22;7744;52.172;10.668;2023-06-10T07:51:44;21.70;1.00
15286;DHT22;7744;52.172;10.668;2023-06-10T07:54:10;21.30;1.00
15286;DHT22;7744;52.172;10.668;2023-06-10T07:56:37;21.30;1.00
15286;DHT22;7744;52.172;10.668;2023-06-10T07:59:03;21.30;1.00
15286;DHT22;7744;52.172;10.668;2023-06-10T08:01:29;21.00;1.00
15286;DHT22;7744;52.172;10.668;2023-06-10T08:03:55;21.10;1.00
15286;DHT22;7744;52.172;10.668;2023-06-10T08:06:21;20.70;1.00
15286;DHT22;7744;52.172;10.668;2023-06-10T08:08:46;20.60;1.00
15286;DHT22;7744;52.172;10.668;2023-06-10T08:11:12;20.80;1.00
15286;DHT22;7744;52.172;10.668;2023-06-10T08:13:38;21.00;1.00
15286;DHT22;7744;52.172;10.668;2023-06-10T08:16:05;21.10;1.00
15286;DHT22;7744;52.172;10.668;2023-06-10T08:18:30;21.10;1.00
15286;DHT22;7744;52.172;10.668;2023-06-10T08:20:56;21.20;1.00
15286;DHT22;7744;52.172;10.668;2023-06-10T08:23:22;21.10;1.00
15286;DHT22;7744;52.172;10.668;2023-06-10T08:25:48;21.30;1.00
15286;DHT22;7744;52.172;10.668;2023-06-10T08:28:13;21.50;1.00
15286;DHT22;7744;52.172;10.668;2023-06-10T08:30:39;21.20;1.00
15286;DHT22;7744;52.172;10.668;2023-06-10T08:33:04;21.30;1.00
15286;DHT22;7744;52.172;10.668;2023-06-10T08:35:30;21.50;1.00
15286;DHT22;7744;52.172;10.668;2023-06-10T08:37:56;21.40;1.00
15286;DHT22;7744;52.172;10.668;2023-06-10T08:40:21;21.60;1.00
15286;DHT22;7744;52.172;10.668;2023-06-10T08:43:05;21.30;1.00
15286;DHT22;7744;52.172;10.668;2023-06-10T08:45:32;21.40;1.00
15286;DHT22;7744;52.172;10.668;2023-06-10T08:48:05;21.40;1.00
15286;DHT22;7744;52.172;10.668;2023-06-10T08:50:36;21.40;1.00
15286;DHT22;7744;52.172;10.668;2023-06-10T08:53:05;21.20;1.00
15286;DHT22;7744;52.172;10.668;2023-06-10T08:58:00;21.30;1.00
15286;DHT22;7744;52.172;10.668;2023-06-10T09:00:26;21.50;1.00
15286;DHT22;7744;52.172;10.668;2023-06-10T09:02:52;21.50;1.00
15286;DHT22;7744;52.172;10.668;2023-06-10T09:05:18;21.50;1.00
15286;DHT22;7744;52.172;10.668;2023-06-10T09:07:45;21.50;1.00
15286;DHT22;7744;52.172;10.668;2023-06-10T09:10:11;21.60;1.00
15286;DHT22;7744;52.172;10.668;2023-06-10T09:12:37;21.70;1.00
15286;DHT22;7744;52.172;10.668;2023-06-10T09:15:06;21.80;1.00
15286;DHT22;7744;52.172;10.668;2023-06-10T09:17:32;21.90;1.00
15286;DHT22;7744;52.172;10.668;2023-06-10T09:20:00;21.70;1.00
15286;DHT22;7744;52.172;10.668;2023-06-10T09:22:28;21.50;1.00
15286;DHT22;7744;52.172;10.668;2023-06-10T09:27:31;21.90;1.00
15286;DHT22;7744;52.172;10.668;2023-06-10T09:29:57;22.00;1.00
15286;DHT22;7744;52.172;10.668;2023-06-10T09:32:24;21.90;1.00
15286;DHT22;7744;52.172;10.668;2023-06-10T09:34:50;21.70;1.00
15286;DHT22;7744;52.172;10.668;2023-06-10T09:37:23;21.70;1.00
15286;DHT22;7744;52.172;10.668;2023-06-10T09:40:03;21.70;1.00
15286;DHT22;7744;52.172;10.668;2023-06-10T09:42:33;21.80;1.00
15286;DHT22;7744;52.172;10.668;2023-06-10T09:45:00;21.70;1.00
15286;DHT22;7744;52.172;10.668;2023-06-10T09:47:25;21.90;1.00
15286;DHT22;7744;52.172;10.668;2023-06-10T09:49:51;22.10;1.00
15286;DHT22;7744;52.172;10.668;2023-06-10T09:52:23;22.40;1.00
15286;DHT22;7744;52.172;10.668;2023-06-10T09:54:50;22.70;1.00
15286;DHT22;7744;52.172;10.668;2023-06-10T09:57:17;22.80;1.00
15286;DHT22;7744;52.172;10.668;2023-06-10T09:59:43;22.90;1.00
15286;DHT22;7744;52.172;10.668;2023-06-10T10:02:19;23.00;1.00
15286;DHT22;7744;52.172;10.668;2023-06-10T10:04:45;23.20;1.00
15286;DHT22;7744;52.172;10.668;2023-06-10T10:07:12;23.20;1.00
15286;DHT22;7744;52.172;10.668;2023-06-10T10:09:38;23.30;1.00
15286;DHT22;7744;52.172;10.668;2023-06-10T10:12:13;23.40;1.00
15286;DHT22;7744;52.172;10.668;2023-06-10T10:14:46;23.40;1.00
15286;DHT22;7744;52.172;10.668;2023-06-10T10:17:14;23.20;1.00
15286;DHT22;7744;52.172;10.668;2023-06-10T10:19:46;23.30;1.00
15286;DHT22;7744;52.172;10.668;2023-06-10T10:22:25;23.60;1.00
15286;DHT22;7744;52.172;10.668;2023-06-10T10:24:55;23.60;1.00
15286;DHT22;7744;52.172;10.668;2023-06-10T10:27:26;23.60;1.00
15286;DHT22;7744;52.172;10.668;2023-06-10T10:29:54;23.90;1.00
15286;DHT22;7744;52.172;10.668;2023-06-10T10:32:32;23.90;1.00
15286;DHT22;7744;52.172;10.668;2023-06-10T10:37:26;24.30;1.00
15286;DHT22;7744;52.172;10.668;2023-06-10T10:39:52;24.30;1.00
15286;DHT22;7744;52.172;10.668;2023-06-10T10:42:18;24.70;1.00
15286;DHT22;7744;52.172;10.668;2023-06-10T10:44:44;24.90;1.00
15286;DHT22;7744;52.172;10.668;2023-06-10T10:47:10;24.90;1.00
15286;DHT22;7744;52.172;10.668;2023-06-10T10:49:37;25.10;1.00
15286;DHT22;7744;52.172;10.668;2023-06-10T10:52:04;25.20;1.00
15286;DHT22;7744;52.172;10.668;2023-06-10T10:54:36;25.10;1.00
15286;DHT22;7744;52.172;10.668;2023-06-10T10:59:53;25.40;1.00
15286;DHT22;7744;52.172;10.668;2023-06-10T11:02:38;25.50;1.00
15286;DHT22;7744;52.172;10.668;2023-06-10T11:05:06;25.70;1.00
15286;DHT22;7744;52.172;10.668;2023-06-10T11:07:33;25.50;1.00
15286;DHT22;7744;52.172;10.668;2023-06-10T11:10:14;25.50;1.00
15286;DHT22;7744;52.172;10.668;2023-06-10T11:12:58;25.70;1.00
15286;DHT22;7744;52.172;10.668;2023-06-10T11:15:29;25.70;1.00
15286;DHT22;7744;52.172;10.668;2023-06-10T11:20:44;25.70;1.00
15286;DHT22;7744;52.172;10.668;2023-06-10T11:23:10;25.70;1.00
15286;DHT22;7744;52.172;10.668;2023-06-10T11:25:49;25.70;1.00
15286;DHT22;7744;52.172;10.668;2023-06-10T11:28:19;25.70;1.00
15286;DHT22;7744;52.172;10.668;2023-06-10T11:30:45;26.00;1.00
15286;DHT22;7744;52.172;10.668;2023-06-10T11:33:16;26.00;1.00
15286;DHT22;7744;52.172;10.668;2023-06-10T11:35:43;25.80;1.00
15286;DHT22;7744;52.172;10.668;2023-06-10T11:38:09;25.90;1.00
15286;DHT22;7744;52.172;10.668;2023-06-10T11:40:36;25.90;1.00
15286;DHT22;7744;52.172;10.668;2023-06-10T11:43:03;25.90;1.00
15286;DHT22;7744;52.172;10.668;2023-06-10T11:45:29;26.00;1.00
15286;DHT22;7744;52.172;10.668;2023-06-10T11:47:59;26.00;1.00
15286;DHT22;7744;52.172;10.668;2023-06-10T11:50:32;26.10;1.00
15286;DHT22;7744;52.172;10.668;2023-06-10T11:52:58;26.20;1.00
15286;DHT22;7744;52.172;10.668;2023-06-10T11:55:25;26.10;1.00
15286;DHT22;7744;52.172;10.668;2023-06-10T11:57:51;26.00;1.00
15286;DHT22;7744;52.172;10.668;2023-06-10T12:00:23;26.20;1.00
15286;DHT22;7744;52.172;10.668;2023-06-10T12:02:57;26.30;1.00
15286;DHT22;7744;52.172;10.668;2023-06-10T12:05:23;26.50;1.00
15286;DHT22;7744;52.172;10.668;2023-06-10T12:07:49;26.50;1.00
15286;DHT22;7744;52.172;10.668;2023-06-10T12:10:14;26.60;1.00
15286;DHT22;7744;52.172;10.668;2023-06-10T12:12:41;26.80;1.00
15286;DHT22;7744;52.172;10.668;2023-06-10T12:15:07;26.90;1.00
15286;DHT22;7744;52.172;10.668;2023-06-10T12:20:00;26.80;1.00
15286;DHT22;7744;52.172;10.668;2023-06-10T12:22:26;27.00;1.00
15286;DHT22;7744;52.172;10.668;2023-06-10T12:25:03;27.10;1.00
15286;DHT22;7744;52.172;10.668;2023-06-10T12:27:30;27.10;1.00
15286;DHT22;7744;52.172;10.668;2023-06-10T12:29:57;27.00;1.00
15286;DHT22;7744;52.172;10.668;2023-06-10T12:35:05;27.40;1.00
15286;DHT22;7744;52.172;10.668;2023-06-10T12:37:31;27.40;1.00
15286;DHT22;7744;52.172;10.668;2023-06-10T12:40:00;27.40;1.00
15286;DHT22;7744;52.172;10.668;2023-06-10T12:42:26;27.40;1.00
15286;DHT22;7744;52.172;10.668;2023-06-10T12:44:55;27.30;1.00
15286;DHT22;7744;52.172;10.668;2023-06-10T12:47:32;27.30;1.00
15286;DHT22;7744;52.172;10.668;2023-06-10T12:49:58;27.10;1.00
15286;DHT22;7744;52.172;10.668;2023-06-10T12:52:24;27.10;1.00
15286;DHT22;7744;52.172;10.668;2023-06-10T12:54:50;27.30;1.00
15286;DHT22;7744;52.172;10.668;2023-06-10T12:57:17;27.60;1.00
15286;DHT22;7744;52.172;10.668;2023-06-10T12:59:42;27.60;1.00
15286;DHT22;7744;52.172;10.668;2023-06-10T13:02:15;27.70;1.00
15286;DHT22;7744;52.172;10.668;2023-06-10T13:04:43;27.70;1.00
15286;DHT22;7744;52.172;10.668;2023-06-10T13:07:09;27.70;1.00
15286;DHT22;7744;52.172;10.668;2023-06-10T13:09:36;27.60;1.00
15286;DHT22;7744;52.172;10.668;2023-06-10T13:12:01;27.70;1.00
15286;DHT22;7744;52.172;10.668;2023-06-10T13:14:27;27.80;1.00
15286;DHT22;7744;52.172;10.668;2023-06-10T13:16:55;27.80;1.00
15286;DHT22;7744;52.172;10.668;2023-06-10T13:19:21;27.80;1.00
15286;DHT22;7744;52.172;10.668;2023-06-10T13:21:47;27.90;1.00
15286;DHT22;7744;52.172;10.668;2023-06-10T13:24:13;27.80;1.00
15286;DHT22;7744;52.172;10.668;2023-06-10T13:26:39;27.80;1.00
15286;DHT22;7744;52.172;10.668;2023-06-10T13:29:04;27.90;1.00
15286;DHT22;7744;52.172;10.668;2023-06-10T13:31:30;28.00;1.00
15286;DHT22;7744;52.172;10.668;2023-06-10T13:33:57;27.80;1.00
15286;DHT22;7744;52.172;10.668;2023-06-10T13:36:23;27.80;1.00
15286;DHT22;7744;52.172;10.668;2023-06-10T13:38:49;27.90;1.00
15286;DHT22;7744;52.172;10.668;2023-06-10T13:41:15;28.00;1.00
15286;DHT22;7744;52.172;10.668;2023-06-10T13:43:41;28.10;1.00
15286;DHT22;7744;52.172;10.668;2023-06-10T13:46:07;28.20;1.00
15286;DHT22;7744;52.172;10.668;2023-06-10T13:48:32;28.10;1.00
15286;DHT22;7744;52.172;10.668;2023-06-10T13:50:58;27.90;1.00
15286;DHT22;7744;52.172;10.668;2023-06-10T13:53:25;27.80;1.00
15286;DHT22;7744;52.172;10.668;2023-06-10T13:55:51;27.70;1.00
15286;DHT22;7744;52.172;10.668;2023-06-10T13:58:16;27.80;1.00
15286;DHT22;7744;52.172;10.668;2023-06-10T14:00:42;27.80;1.00
15286;DHT22;7744;52.172;10.668;2023-06-10T14:03:08;28.00;1.00
15286;DHT22;7744;52.172;10.668;2023-06-10T14:05:33;28.10;1.00
15286;DHT22;7744;52.172;10.668;2023-06-10T14:08:00;28.10;1.00
15286;DHT22;7744;52.172;10.668;2023-06-10T14:10:25;28.10;1.00
15286;DHT22;7744;52.172;10.668;2023-06-10T14:12:51;28.00;1.00
15286;DHT22;7744;52.172;10.668;2023-06-10T14:15:17;28.20;1.00
15286;DHT22;7744;52.172;10.668;2023-06-10T14:17:42;28.30;1.00
15286;DHT22;7744;52.172;10.668;2023-06-10T14:20:08;28.20;1.00
15286;DHT22;7744;52.172;10.668;2023-06-10T14:22:34;28.20;1.00
15286;DHT22;7744;52.172;10.668;2023-06-10T14:25:00;28.30;1.00
15286;DHT22;7744;52.172;10.668;2023-06-10T14:27:25;28.30;1.00
15286;DHT22;7744;52.172;10.668;2023-06-10T14:29:51;28.50;1.00
15286;DHT22;7744;52.172;10.668;2023-06-10T14:32:17;28.40;1.00
15286;DHT22;7744;52.172;10.668;2023-06-10T14:34:42;28.40;1.00
15286;DHT22;7744;52.172;10.668;2023-06-10T14:37:10;28.50;1.00
15286;DHT22;7744;52.172;10.668;2023-06-10T14:39:35;28.60;1.00
15286;DHT22;7744;52.172;10.668;2023-06-10T14:42:01;28.60;1.00
15286;DHT22;7744;52.172;10.668;2023-06-10T14:44:27;28.80;1.00
15286;DHT22;7744;52.172;10.668;2023-06-10T14:46:53;28.70;1.00
15286;DHT22;7744;52.172;10.668;2023-06-10T14:49:18;28.60;1.00
15286;DHT22;7744;52.172;10.668;2023-06-10T14:51:44;28.70;1.00
15286;DHT22;7744;52.172;10.668;2023-06-10T14:54:10;28.80;1.00
15286;DHT22;7744;52.172;10.668;2023-06-10T14:56:35;28.80;1.00
15286;DHT22;7744;52.172;10.668;2023-06-10T14:59:01;28.80;1.00
15286;DHT22;7744;52.172;10.668;2023-06-10T15:01:27;28.80;1.00
15286;DHT22;7744;52.172;10.668;2023-06-10T15:03:52;28.70;1.00
15286;DHT22;7744;52.172;10.668;2023-06-10T15:06:18;28.70;1.00
15286;DHT22;7744;52.172;10.668;2023-06-10T15:08:46;28.70;1.00
15286;DHT22;7744;52.172;10.668;2023-06-10T15:11:14;29.00;1.00
15286;DHT22;7744;52.172;10.668;2023-06-10T15:13:40;29.20;1.00
15286;DHT22;7744;52.172;10.668;2023-06-10T15:16:06;29.20;1.00
15286;DHT22;7744;52.172;10.668;2023-06-10T15:18:32;29.30;1.00
15286;DHT22;7744;52.172;10.668;2023-06-10T15:20:57;29.50;1.00
15286;DHT22;7744;52.172;10.668;2023-06-10T15:23:24;29.40;1.00
15286;DHT22;7744;52.172;10.668;2023-06-10T15:25:50;29.70;1.00
15286;DHT22;7744;52.172;10.668;2023-06-10T15:28:16;29.90;1.00
15286;DHT22;7744;52.172;10.668;2023-06-10T15:30:41;28.70;1.00
15286;DHT22;7744;52.172;10.668;2023-06-10T15:33:07;27.10;1.00
15286;DHT22;7744;52.172;10.668;2023-06-10T15:35:33;26.70;1.00
15286;DHT22;7744;52.172;10.668;2023-06-10T15:37:59;26.30;1.00
15286;DHT22;7744;52.172;10.668;2023-06-10T15:40:25;26.00;1.00
15286;DHT22;7744;52.172;10.668;2023-06-10T15:42:51;25.60;1.00
15286;DHT22;7744;52.172;10.668;2023-06-10T15:45:16;25.30;1.00
15286;DHT22;7744;52.172;10.668;2023-06-10T15:47:42;25.10;1.00
15286;DHT22;7744;52.172;10.668;2023-06-10T15:50:08;24.90;1.00
15286;DHT22;7744;52.172;10.668;2023-06-10T15:52:34;24.70;1.00
15286;DHT22;7744;52.172;10.668;2023-06-10T15:55:00;24.20;1.00
15286;DHT22;7744;52.172;10.668;2023-06-10T15:57:26;23.90;1.00
15286;DHT22;7744;52.172;10.668;2023-06-10T15:59:52;23.70;1.00